createdAt,value
2018-07-17T00:02:27.459Z,99.90
2018-07-17T00:04:56.837Z,99.90
2018-07-17T00:07:25.313Z,99.90
2018-07-17T00:09:53.797Z,99.90
2018-07-17T00:12:22.287Z,99.90
2018-07-17T00:14:50.723Z,99.90
2018-07-17T00:17:19.164Z,99.90
2018-07-17T00:19:47.617Z,99.90
2018-07-17T00:22:16.033Z,99.90
2018-07-17T00:24:44.712Z,99.90
2018-07-17T00:27:13.194Z,99.90
2018-07-17T00:29:41.878Z,99.90
2018-07-17T00:32:10.336Z,99.90
2018-07-17T00:34:38.859Z,99.90
2018-07-17T00:37:07.331Z,99.90
2018-07-17T00:39:35.805Z,99.90
2018-07-17T00:42:04.341Z,99.90
2018-07-17T00:44:32.802Z,99.90
2018-07-17T00:47:01.260Z,99.90
2018-07-17T00:49:29.813Z,99.90
2018-07-17T00:51:58.329Z,99.90
2018-07-17T00:54:27.001Z,99.90
2018-07-17T00:56:55.510Z,99.90
2018-07-17T00:59:23.996Z,99.90
2018-07-17T01:01:57.709Z,99.90
2018-07-17T01:04:31.442Z,99.90
2018-07-17T01:07:06.028Z,99.90
2018-07-17T01:09:39.804Z,99.90
2018-07-17T01:12:12.427Z,99.90
2018-07-17T01:15:12.338Z,99.90
2018-07-17T01:17:40.984Z,99.90
2018-07-17T01:20:09.471Z,99.90
2018-07-17T01:22:37.968Z,99.90
2018-07-17T01:25:06.448Z,99.90
2018-07-17T01:27:34.909Z,99.90
2018-07-17T01:30:03.355Z,99.90
2018-07-17T01:32:31.849Z,99.90
2018-07-17T01:35:00.347Z,99.90
2018-07-17T01:37:28.917Z,99.90
2018-07-17T01:39:57.464Z,99.90
2018-07-17T01:42:25.976Z,99.90
2018-07-17T01:44:54.450Z,99.90
2018-07-17T01:47:22.946Z,99.90
2018-07-17T01:49:51.383Z,99.90
2018-07-17T01:52:19.899Z,99.90
2018-07-17T01:54:48.320Z,99.90
2018-07-17T01:57:16.785Z,99.90
2018-07-17T01:59:45.208Z,99.90
2018-07-17T02:02:13.750Z,99.90
2018-07-17T02:04:42.192Z,99.90
2018-07-17T02:07:10.689Z,99.90
2018-07-17T02:09:39.194Z,99.90
2018-07-17T02:12:07.800Z,99.90
2018-07-17T02:14:36.540Z,99.90
2018-07-17T02:17:05.141Z,99.90
2018-07-17T02:19:33.765Z,99.90
2018-07-17T02:22:02.332Z,99.90
2018-07-17T02:24:30.914Z,99.90
2018-07-17T02:26:59.389Z,99.90
2018-07-17T02:29:28.698Z,99.90
2018-07-17T02:31:57.147Z,99.90
2018-07-17T02:34:25.617Z,99.90
2018-07-17T02:36:54.031Z,99.90
2018-07-17T02:39:22.475Z,99.90
2018-07-17T02:41:50.914Z,99.90
2018-07-17T02:44:19.349Z,99.90
2018-07-17T02:46:47.748Z,99.90
2018-07-17T02:49:16.185Z,99.90
2018-07-17T02:51:44.574Z,99.90
2018-07-17T02:54:13.015Z,99.90
2018-07-17T02:56:42.317Z,99.90
2018-07-17T02:59:10.847Z,99.90
2018-07-17T03:01:39.314Z,99.90
2018-07-17T03:04:07.881Z,99.90
2018-07-17T03:06:36.481Z,99.90
2018-07-17T03:09:05.973Z,99.90
2018-07-17T03:11:34.419Z,99.90
2018-07-17T03:16:31.138Z,99.90
2018-07-17T03:18:59.555Z,99.90
2018-07-17T03:21:28.104Z,99.90
2018-07-17T03:23:56.541Z,99.90
2018-07-17T03:26:24.977Z,99.90
2018-07-17T03:28:53.389Z,99.90
2018-07-17T03:31:21.879Z,99.90
2018-07-17T03:33:50.357Z,99.90
2018-07-17T03:36:18.877Z,99.90
2018-07-17T03:38:47.255Z,99.90
2018-07-17T03:41:15.768Z,99.90
2018-07-17T03:46:12.467Z,99.90
2018-07-17T03:48:40.952Z,99.90
2018-07-17T03:51:09.442Z,99.90
2018-07-17T03:53:37.898Z,99.90
2018-07-17T03:56:06.305Z,99.90
2018-07-17T03:58:34.775Z,99.90
2018-07-17T04:01:03.194Z,99.90
2018-07-17T04:03:31.600Z,99.90
2018-07-17T04:06:00.362Z,99.90
2018-07-17T04:08:28.884Z,99.90
2018-07-17T04:10:57.491Z,99.90
2018-07-17T04:13:25.943Z,99.90
2018-07-17T04:15:54.361Z,99.90
2018-07-17T04:18:22.839Z,99.90
2018-07-17T04:20:51.330Z,99.90
2018-07-17T04:23:19.827Z,99.90
2018-07-17T04:28:16.584Z,99.90
2018-07-17T04:30:45.076Z,99.90
2018-07-17T04:33:13.513Z,99.90
2018-07-17T04:35:42.032Z,99.90
2018-07-17T04:38:10.552Z,99.90
2018-07-17T04:40:45.582Z,99.90
2018-07-17T04:43:14.052Z,99.90
2018-07-17T04:45:42.457Z,99.90
2018-07-17T04:48:10.915Z,99.90
2018-07-17T04:50:39.343Z,99.90
2018-07-17T04:53:07.822Z,99.90
2018-07-17T04:55:36.295Z,99.90
2018-07-17T04:58:04.720Z,99.90
2018-07-17T05:00:33.178Z,99.90
2018-07-17T05:03:01.644Z,99.90
2018-07-17T05:05:30.162Z,99.90
2018-07-17T05:07:58.671Z,99.90
2018-07-17T05:10:27.119Z,99.90
2018-07-17T05:12:55.704Z,99.90
2018-07-17T05:15:24.185Z,99.90
2018-07-17T05:17:52.614Z,99.90
2018-07-17T05:20:21.199Z,99.90
2018-07-17T05:22:49.775Z,99.90
2018-07-17T05:25:18.206Z,99.90
2018-07-17T05:27:46.744Z,99.90
2018-07-17T05:30:15.247Z,99.90
2018-07-17T05:32:43.746Z,99.90
2018-07-17T05:35:12.291Z,99.90
2018-07-17T05:37:40.638Z,99.90
2018-07-17T05:40:09.013Z,99.90
2018-07-17T05:42:37.467Z,99.90
2018-07-17T05:45:06.017Z,99.90
2018-07-17T05:47:38.818Z,99.90
2018-07-17T05:50:07.674Z,99.90
2018-07-17T05:52:36.162Z,99.90
2018-07-17T05:55:04.688Z,99.90
2018-07-17T05:57:33.160Z,99.90
2018-07-17T06:00:02.332Z,99.90
2018-07-17T06:02:30.874Z,99.90
2018-07-17T06:04:59.309Z,99.90
2018-07-17T06:07:27.775Z,99.90
2018-07-17T06:09:56.274Z,99.90
2018-07-17T06:12:24.921Z,99.90
2018-07-17T06:14:53.398Z,99.90
2018-07-17T06:17:21.816Z,99.90
2018-07-17T06:19:50.246Z,99.90
2018-07-17T06:22:18.686Z,99.90
2018-07-17T06:27:15.509Z,99.90
2018-07-17T06:29:43.892Z,99.90
2018-07-17T06:32:12.470Z,99.90
2018-07-17T06:34:40.957Z,99.90
2018-07-17T06:37:09.450Z,99.90
2018-07-17T06:39:37.917Z,99.90
2018-07-17T06:42:06.540Z,99.90
2018-07-17T06:44:35.082Z,99.90
2018-07-17T06:49:31.604Z,99.90
2018-07-17T06:52:00.048Z,99.90
2018-07-17T06:54:28.532Z,99.90
2018-07-17T06:56:56.943Z,99.90
2018-07-17T06:59:25.377Z,99.90
2018-07-17T07:01:53.844Z,99.90
2018-07-17T07:04:22.305Z,99.90
2018-07-17T07:06:50.820Z,99.90
2018-07-17T07:09:20.142Z,99.90
2018-07-17T07:11:48.743Z,99.90
2018-07-17T07:14:17.181Z,99.90
2018-07-17T07:16:45.647Z,99.90
2018-07-17T07:19:14.148Z,99.90
2018-07-17T07:21:42.673Z,99.90
2018-07-17T07:24:11.158Z,99.90
2018-07-17T07:26:39.668Z,99.90
2018-07-17T07:29:08.226Z,99.90
2018-07-17T07:31:36.759Z,99.90
2018-07-17T07:34:05.369Z,99.90
2018-07-17T07:36:33.922Z,99.90
2018-07-17T07:39:02.396Z,99.90
2018-07-17T07:41:30.958Z,99.90
2018-07-17T07:43:59.405Z,99.90
2018-07-17T07:46:27.897Z,99.90
2018-07-17T07:48:56.468Z,99.90
2018-07-17T07:51:25.018Z,99.90
2018-07-17T07:53:53.521Z,99.90
2018-07-17T07:56:22.004Z,99.90
2018-07-17T07:58:50.449Z,99.60
2018-07-17T08:01:19.087Z,98.70
2018-07-17T08:03:47.622Z,98.40
2018-07-17T08:06:16.252Z,97.40
2018-07-17T08:08:44.831Z,94.30
2018-07-17T08:11:13.417Z,93.10
2018-07-17T08:13:41.874Z,91.80
2018-07-17T08:16:10.428Z,91.50
2018-07-17T08:18:38.893Z,91.80
2018-07-17T08:21:07.435Z,91.90
2018-07-17T08:23:35.880Z,90.30
2018-07-17T08:28:32.629Z,86.30
2018-07-17T08:31:01.099Z,87.10
2018-07-17T08:33:29.744Z,87.00
2018-07-17T08:35:58.289Z,84.90
2018-07-17T08:38:26.904Z,83.20
2018-07-17T08:40:55.356Z,81.70
2018-07-17T08:43:23.929Z,81.10
2018-07-17T08:45:52.352Z,82.00
2018-07-17T08:48:20.819Z,82.90
2018-07-17T08:50:49.245Z,81.50
2018-07-17T08:53:17.784Z,80.90
2018-07-17T08:55:46.576Z,79.20
2018-07-17T08:58:15.127Z,78.90
2018-07-17T09:03:11.664Z,77.10
2018-07-17T09:05:40.082Z,73.80
2018-07-17T09:08:08.745Z,75.00
2018-07-17T09:10:37.248Z,74.80
2018-07-17T09:13:05.785Z,74.40
2018-07-17T09:15:34.282Z,72.60
2018-07-17T09:18:02.754Z,73.40
2018-07-17T09:20:31.280Z,73.20
2018-07-17T09:22:59.751Z,74.20
2018-07-17T09:25:28.313Z,69.90
2018-07-17T09:27:57.148Z,67.70
2018-07-17T09:30:29.729Z,66.20
2018-07-17T09:32:58.357Z,67.60
2018-07-17T09:37:54.912Z,65.20
2018-07-17T09:42:51.931Z,63.40
2018-07-17T09:45:20.500Z,65.90
2018-07-17T09:47:48.975Z,68.00
2018-07-17T09:50:17.580Z,66.30
2018-07-17T09:52:46.162Z,71.20
2018-07-17T09:55:14.706Z,69.40
2018-07-17T09:57:43.219Z,68.40
2018-07-17T10:00:16.332Z,69.10
2018-07-17T10:02:44.888Z,69.00
2018-07-17T10:05:13.435Z,67.80
2018-07-17T10:07:42.000Z,66.20
2018-07-17T10:10:10.932Z,66.80
2018-07-17T10:12:39.476Z,66.00
2018-07-17T10:15:08.201Z,65.40
2018-07-17T10:17:36.711Z,64.80
2018-07-17T10:20:05.377Z,63.90
2018-07-17T10:22:33.807Z,61.20
2018-07-17T10:25:02.369Z,59.80
2018-07-17T10:27:30.875Z,59.80
2018-07-17T10:29:59.388Z,59.10
2018-07-17T10:32:30.925Z,60.30
2018-07-17T10:34:59.547Z,63.20
2018-07-17T10:37:28.206Z,64.10
2018-07-17T10:39:56.645Z,61.20
2018-07-17T10:42:25.215Z,61.00
2018-07-17T10:44:53.681Z,61.80
2018-07-17T10:47:22.295Z,62.00
2018-07-17T10:49:50.805Z,59.30
2018-07-17T10:52:19.341Z,58.80
2018-07-17T10:54:47.848Z,57.30
2018-07-17T10:57:16.395Z,56.20
2018-07-17T10:59:44.895Z,58.30
2018-07-17T11:02:13.506Z,58.10
2018-07-17T11:04:42.125Z,55.90
2018-07-17T11:07:10.584Z,55.90
2018-07-17T11:09:39.056Z,56.50
2018-07-17T11:12:07.554Z,56.80
2018-07-17T11:14:36.139Z,55.30
2018-07-17T11:17:05.722Z,55.90
2018-07-17T11:19:34.282Z,54.10
2018-07-17T11:22:02.840Z,49.40
2018-07-17T11:24:31.349Z,49.00
2018-07-17T11:26:59.988Z,47.70
2018-07-17T11:29:28.455Z,47.90
2018-07-17T11:31:57.062Z,47.90
2018-07-17T11:34:25.629Z,49.80
2018-07-17T11:36:54.165Z,50.60
2018-07-17T11:41:50.925Z,50.70
2018-07-17T11:44:19.525Z,49.60
2018-07-17T11:46:48.241Z,48.20
2018-07-17T11:49:16.794Z,49.20
2018-07-17T11:51:45.254Z,47.40
2018-07-17T11:54:13.779Z,48.50
2018-07-17T11:56:42.277Z,48.20
2018-07-17T11:59:10.847Z,47.60
2018-07-17T12:01:39.385Z,48.30
2018-07-17T12:04:07.867Z,49.00
2018-07-17T12:06:36.467Z,51.70
2018-07-17T12:09:06.650Z,54.20
2018-07-17T12:11:35.145Z,49.80
2018-07-17T12:14:03.729Z,48.00
2018-07-17T12:16:32.416Z,49.50
2018-07-17T12:19:00.962Z,50.00
2018-07-17T12:21:29.462Z,49.90
2018-07-17T12:23:58.274Z,50.40
2018-07-17T12:28:55.010Z,50.00
2018-07-17T12:31:23.568Z,47.10
2018-07-17T12:33:52.130Z,45.80
2018-07-17T12:36:20.747Z,45.70
2018-07-17T12:38:49.274Z,45.40
2018-07-17T12:41:17.947Z,45.60
2018-07-17T12:46:14.833Z,43.70
2018-07-17T12:48:43.352Z,44.00
2018-07-17T12:53:41.013Z,43.50
2018-07-17T12:56:09.525Z,44.80
2018-07-17T12:58:38.074Z,44.70
2018-07-17T13:01:06.550Z,45.30
2018-07-17T13:03:35.112Z,45.30
2018-07-17T13:06:03.718Z,45.30
2018-07-17T13:08:32.287Z,42.50
2018-07-17T13:11:00.818Z,41.90
2018-07-17T13:13:29.337Z,42.20
2018-07-17T13:15:57.830Z,42.70
2018-07-17T13:18:26.307Z,40.90
2018-07-17T13:20:54.822Z,41.70
2018-07-17T13:23:23.312Z,41.10
2018-07-17T13:25:51.894Z,39.80
2018-07-17T13:28:20.327Z,40.20
2018-07-17T13:30:48.792Z,40.40
2018-07-17T13:33:17.362Z,39.20
2018-07-17T13:38:20.587Z,38.10
2018-07-17T13:40:49.166Z,38.90
2018-07-17T13:43:17.679Z,38.80
2018-07-17T13:45:46.324Z,39.50
2018-07-17T13:48:14.799Z,39.00
2018-07-17T13:50:43.290Z,39.20
2018-07-17T13:53:11.903Z,40.30
2018-07-17T13:55:40.549Z,41.80
2018-07-17T13:58:09.036Z,43.70
2018-07-17T14:00:37.541Z,48.60
2018-07-17T14:03:06.050Z,51.40
2018-07-17T14:05:34.501Z,54.00
2018-07-17T14:08:03.021Z,55.20
2018-07-17T14:10:31.603Z,56.60
2018-07-17T14:13:00.229Z,57.00
2018-07-17T14:15:28.928Z,57.60
2018-07-17T14:17:57.414Z,58.70
2018-07-17T14:20:25.879Z,58.80
2018-07-17T14:22:54.682Z,58.50
2018-07-17T14:25:23.327Z,58.70
2018-07-17T14:27:51.973Z,58.20
2018-07-17T14:30:20.570Z,58.10
2018-07-17T14:32:49.227Z,57.40
2018-07-17T14:35:17.703Z,56.40
2018-07-17T14:37:46.263Z,56.30
2018-07-17T14:45:11.293Z,56.30
2018-07-17T14:47:39.786Z,53.90
2018-07-17T14:50:08.737Z,55.00
2018-07-17T14:52:37.331Z,54.90
2018-07-17T14:55:07.151Z,54.40
2018-07-17T14:57:36.211Z,53.80
2018-07-17T15:00:05.819Z,54.10
2018-07-17T15:02:34.377Z,53.40
2018-07-17T15:05:02.989Z,53.00
2018-07-17T15:07:31.612Z,53.00
2018-07-17T15:10:00.811Z,53.10
2018-07-17T15:12:29.251Z,53.60
2018-07-17T15:14:57.835Z,54.70
2018-07-17T15:17:26.341Z,54.50
2018-07-17T15:19:54.940Z,54.70
2018-07-17T15:22:24.142Z,54.50
2018-07-17T15:24:52.772Z,55.10
2018-07-17T15:27:21.293Z,54.80
2018-07-17T15:29:50.077Z,55.50
2018-07-17T15:32:18.622Z,55.50
2018-07-17T15:34:47.181Z,55.30
2018-07-17T15:37:15.717Z,55.40
2018-07-17T15:39:44.316Z,55.60
2018-07-17T15:42:13.004Z,56.70
2018-07-17T15:44:41.634Z,58.20
2018-07-17T15:47:11.236Z,59.40
2018-07-17T15:49:39.724Z,60.70
2018-07-17T15:52:08.469Z,61.00
2018-07-17T15:54:37.262Z,63.50
2018-07-17T15:57:06.582Z,65.90
2018-07-17T15:59:35.344Z,66.60
2018-07-17T16:02:03.994Z,66.80
2018-07-17T16:04:32.499Z,66.20
2018-07-17T16:07:00.969Z,67.70
2018-07-17T16:09:30.030Z,68.30
2018-07-17T16:11:58.563Z,69.10
2018-07-17T16:14:27.417Z,71.50
2018-07-17T16:16:55.700Z,73.00
2018-07-17T16:19:24.414Z,73.20
2018-07-17T16:21:54.024Z,74.50
2018-07-17T16:24:22.644Z,75.50
2018-07-17T16:26:51.231Z,77.20
2018-07-17T16:29:20.147Z,78.80
2018-07-17T16:31:48.769Z,76.60
2018-07-17T16:34:18.317Z,78.40
2018-07-17T16:36:46.946Z,81.40
2018-07-17T16:39:15.505Z,82.30
2018-07-17T16:41:44.287Z,83.50
2018-07-17T16:44:12.956Z,84.20
2018-07-17T16:46:41.833Z,85.00
2018-07-17T16:49:10.947Z,85.90
2018-07-17T16:51:39.712Z,86.70
2018-07-17T16:54:08.464Z,87.30
2018-07-17T16:56:37.220Z,88.50
2018-07-17T16:59:05.852Z,90.00
2018-07-17T17:01:34.745Z,90.50
2018-07-17T17:04:03.312Z,90.40
2018-07-17T17:09:00.307Z,91.20
2018-07-17T17:11:28.859Z,91.90
2018-07-17T17:14:00.770Z,92.80
2018-07-17T17:16:29.283Z,92.50
2018-07-17T17:18:58.234Z,92.50
2018-07-17T17:21:26.956Z,92.30
2018-07-17T17:23:55.593Z,92.30
2018-07-17T17:26:24.097Z,92.60
2018-07-17T17:28:53.548Z,92.20
2018-07-17T17:31:22.211Z,92.60
2018-07-17T17:33:50.858Z,92.40
2018-07-17T17:36:19.708Z,92.30
2018-07-17T17:38:48.166Z,91.10
2018-07-17T17:41:16.771Z,90.50
2018-07-17T17:43:45.407Z,90.30
2018-07-17T17:46:14.303Z,90.00
2018-07-17T17:48:42.874Z,90.20
2018-07-17T17:51:11.522Z,90.30
2018-07-17T17:53:40.119Z,90.60
2018-07-17T17:56:08.723Z,90.70
2018-07-17T17:58:37.479Z,90.70
2018-07-17T18:03:34.779Z,90.70
2018-07-17T18:06:03.553Z,90.60
2018-07-17T18:08:32.582Z,91.00
2018-07-17T18:11:01.505Z,91.20
2018-07-17T18:13:30.546Z,91.30
2018-07-17T18:15:59.381Z,91.60
2018-07-17T18:18:28.117Z,92.30
2018-07-17T18:20:56.685Z,92.60
2018-07-17T18:23:25.307Z,93.10
2018-07-17T18:25:54.168Z,93.80
2018-07-17T18:28:22.755Z,94.40
2018-07-17T18:30:51.446Z,94.90
2018-07-17T18:33:20.261Z,95.30
2018-07-17T18:35:48.860Z,95.90
2018-07-17T18:38:17.483Z,96.30
2018-07-17T18:40:46.475Z,96.70
2018-07-17T18:43:15.316Z,97.20
2018-07-17T18:45:44.881Z,97.60
2018-07-17T18:48:13.610Z,98.00
2018-07-17T18:50:42.525Z,98.20
2018-07-17T18:53:11.199Z,98.80
2018-07-17T18:55:40.107Z,98.60
2018-07-17T18:58:09.301Z,99.00
2018-07-17T19:00:38.103Z,99.30
2018-07-17T19:03:07.885Z,99.50
2018-07-17T19:05:37.103Z,99.80
2018-07-17T19:10:34.705Z,99.90
2018-07-17T19:13:03.367Z,99.90
2018-07-17T19:15:33.152Z,99.90
2018-07-17T19:18:02.643Z,99.90
2018-07-17T19:20:31.494Z,99.90
2018-07-17T19:23:00.869Z,99.90
2018-07-17T19:25:29.830Z,99.90
2018-07-17T19:27:59.280Z,99.90
2018-07-17T19:30:28.192Z,99.90
2018-07-17T19:32:57.483Z,99.90
2018-07-17T19:35:27.155Z,99.90
2018-07-17T19:37:56.204Z,99.90
2018-07-17T19:40:25.223Z,99.90
2018-07-17T19:42:56.344Z,99.90
2018-07-17T19:45:25.467Z,99.90
2018-07-17T19:47:54.387Z,99.90
2018-07-17T19:50:23.830Z,99.90
2018-07-17T19:52:53.038Z,99.90
2018-07-17T19:55:21.816Z,99.90
2018-07-17T19:57:51.005Z,99.90
2018-07-17T20:00:19.908Z,99.90
2018-07-17T20:02:48.844Z,99.90
2018-07-17T20:05:19.398Z,99.90
2018-07-17T20:07:48.275Z,99.90
2018-07-17T20:10:17.279Z,99.90
2018-07-17T20:12:46.196Z,99.90
2018-07-17T20:15:15.399Z,99.90
2018-07-17T20:17:44.433Z,99.90
2018-07-17T20:20:13.327Z,99.90
2018-07-17T20:22:42.438Z,99.90
2018-07-17T20:25:11.188Z,99.90
2018-07-17T20:27:40.073Z,99.90
2018-07-17T20:30:08.795Z,99.90
2018-07-17T20:32:37.573Z,99.90
2018-07-17T20:35:06.650Z,99.90
2018-07-17T20:37:35.255Z,99.90
2018-07-17T20:42:32.213Z,99.90
2018-07-17T20:45:00.811Z,99.90
2018-07-17T20:47:29.424Z,99.90
2018-07-17T20:49:58.137Z,99.90
2018-07-17T20:52:26.897Z,99.90
2018-07-17T20:55:02.074Z,99.90
2018-07-17T20:57:30.770Z,99.90
2018-07-17T20:59:59.649Z,99.90
2018-07-17T21:02:28.351Z,99.90
2018-07-17T21:04:57.301Z,99.90
2018-07-17T21:07:25.984Z,99.90
2018-07-17T21:09:54.512Z,99.90
2018-07-17T21:12:23.128Z,99.90
2018-07-17T21:14:51.753Z,99.90
2018-07-17T21:17:20.523Z,99.90
2018-07-17T21:19:49.127Z,99.90
2018-07-17T21:22:17.902Z,99.90
2018-07-17T21:24:46.435Z,99.90
2018-07-17T21:27:15.432Z,99.90
2018-07-17T21:29:43.945Z,99.90
2018-07-17T21:32:12.446Z,99.90
2018-07-17T21:34:40.981Z,99.90
2018-07-17T21:37:09.524Z,99.90
2018-07-17T21:39:38.084Z,99.90
2018-07-17T21:42:06.935Z,99.90
2018-07-17T21:44:35.507Z,99.90
2018-07-17T21:47:04.084Z,99.90
2018-07-17T21:52:02.084Z,99.90
2018-07-17T21:54:30.518Z,99.90
2018-07-17T21:56:59.106Z,99.90
2018-07-17T21:59:27.638Z,99.90
2018-07-17T22:01:56.139Z,99.90
2018-07-17T22:04:24.650Z,99.90
2018-07-17T22:06:53.121Z,99.90
2018-07-17T22:09:21.643Z,99.90
2018-07-17T22:11:50.114Z,99.90
2018-07-17T22:14:18.565Z,99.90
2018-07-17T22:16:47.140Z,99.90
2018-07-17T22:19:15.624Z,99.90
2018-07-17T22:21:44.144Z,99.90
2018-07-17T22:24:12.660Z,99.90
2018-07-17T22:26:41.226Z,99.90
2018-07-17T22:29:09.756Z,99.90
2018-07-17T22:31:38.281Z,99.90
2018-07-17T22:34:06.809Z,99.90
2018-07-17T22:36:35.292Z,99.90
2018-07-17T22:39:04.807Z,99.90
2018-07-17T22:41:33.236Z,99.90
2018-07-17T22:44:01.689Z,99.90
2018-07-17T22:46:30.114Z,99.90
2018-07-17T22:48:58.594Z,99.90
2018-07-17T22:51:27.081Z,99.90
2018-07-17T22:53:55.594Z,99.90
2018-07-17T22:56:24.070Z,99.90
2018-07-17T22:58:52.554Z,99.90
2018-07-17T23:01:27.451Z,99.90
2018-07-17T23:03:55.998Z,99.90
2018-07-17T23:06:24.450Z,99.90
2018-07-17T23:08:53.001Z,99.90
2018-07-17T23:11:21.948Z,99.90
2018-07-17T23:13:51.348Z,99.90
2018-07-17T23:16:20.065Z,99.90
2018-07-17T23:18:48.656Z,99.90
2018-07-17T23:21:17.583Z,99.90
2018-07-17T23:23:46.201Z,99.90
2018-07-17T23:26:14.657Z,99.90
2018-07-17T23:28:43.705Z,99.90
2018-07-17T23:31:12.122Z,99.90
2018-07-17T23:33:40.978Z,99.90
2018-07-17T23:36:09.453Z,99.90
2018-07-17T23:38:37.948Z,99.90
2018-07-17T23:41:06.547Z,99.90
2018-07-17T23:43:35.013Z,99.90
2018-07-17T23:46:03.552Z,99.90
2018-07-17T23:51:00.264Z,99.90
2018-07-17T23:53:28.776Z,99.90
2018-07-17T23:55:57.220Z,99.90
2018-07-17T23:58:25.703Z,99.90
